Terminal Aerodrome Forecast
Issued by NWS

Home | Current Version | Previous Version | Text Only | Print | Product List | Glossary On
Versions: 1 2 3 4 5 6 7 8 9 10 11 12 13 14
000
FTUS43 KLSX 311200 AAA
TAFCPS
TAF AMD
KCPS 311236Z 3113/0112 33013G21KT P6SM OVC025
     FM311400 34019G29KT P6SM SCT050
     FM010000 34015KT P6SM SKC
     FM010600 35005KT P6SM SKC=

USA.gov is the U.S. government's official web portal to all federal, state and local government web resources and services.